Terminal Aerodrome Forecast
Issued by NWS Portland, OR

Home | Current Version | Previous Version | Text Only | Print | Product List | Glossary On
Versions: 1 2 3 4 5 6 7 8 9 10 11 12 13 14 15 16 17 18 19 20 21 22 23 24 25 26 27 28 29 30
000
FTUS46 KPQR 011759
TAFTTD
TAF
KTTD 011759Z 0118/0218 VRB03KT P6SM SCT090
     FM012000 29005KT P6SM SCT060 SCT090
     FM012200 29006KT P6SM SCT050 BKN070
     FM021000 31005KT P6SM FEW008 OVC015=

USA.gov is the U.S. government's official web portal to all federal, state and local government web resources and services.